createdAt,value
2023-04-27T00:04:24.536Z,9.61
2023-04-27T00:09:26.270Z,9.44
2023-04-27T00:14:27.867Z,9.38
2023-04-27T00:19:29.610Z,9.33
2023-04-27T00:24:31.243Z,9.25
2023-04-27T00:29:33.097Z,9.25
2023-04-27T00:34:35.269Z,9.33
2023-04-27T00:39:36.905Z,9.44
2023-04-27T00:44:39.816Z,9.49
2023-04-27T00:49:41.747Z,9.50
2023-04-27T00:54:43.658Z,9.51
2023-04-27T00:59:45.345Z,9.57
2023-04-27T01:04:50.113Z,9.53
2023-04-27T01:09:51.801Z,9.43
2023-04-27T01:14:53.376Z,9.41
2023-04-27T01:19:55.015Z,9.25
2023-04-27T01:24:56.592Z,9.22
2023-04-27T01:29:58.425Z,9.28
2023-04-27T01:35:00.135Z,9.32
2023-04-27T01:40:01.969Z,9.32
2023-04-27T01:45:04.185Z,9.21
2023-04-27T01:50:07.275Z,9.03
2023-04-27T01:55:09.525Z,9.00
2023-04-27T02:00:12.874Z,8.94
2023-04-27T02:05:23.980Z,8.87
2023-04-27T02:10:27.653Z,8.78
2023-04-27T02:15:32.324Z,8.59
2023-04-27T02:20:34.980Z,8.55
2023-04-27T02:25:37.271Z,8.58
2023-04-27T02:30:39.450Z,8.67
2023-04-27T02:35:41.014Z,8.70
2023-04-27T02:40:42.732Z,8.72
2023-04-27T02:45:44.466Z,8.92
2023-04-27T02:50:46.336Z,8.83
2023-04-27T02:55:48.545Z,8.94
2023-04-27T03:00:57.345Z,8.63
2023-04-27T03:05:59.016Z,8.63
2023-04-27T03:11:00.737Z,8.40
2023-04-27T03:16:03.778Z,8.10
2023-04-27T03:21:09.838Z,7.90
2023-04-27T03:26:14.117Z,7.72
2023-04-27T03:31:16.299Z,7.50
2023-04-27T03:36:17.957Z,7.41
2023-04-27T03:41:19.674Z,7.31
2023-04-27T03:46:21.387Z,7.03
2023-04-27T03:51:23.493Z,6.83
2023-04-27T03:56:25.256Z,6.63
2023-04-27T04:01:27.053Z,6.66
2023-04-27T04:06:28.827Z,6.70
2023-04-27T04:11:31.304Z,6.80
2023-04-27T04:16:34.617Z,6.66
2023-04-27T04:21:36.363Z,6.42
2023-04-27T04:26:40.699Z,6.24
2023-04-27T04:31:42.657Z,6.41
2023-04-27T04:36:44.558Z,6.35
2023-04-27T04:41:46.705Z,6.37
2023-04-27T04:46:48.975Z,6.52
2023-04-27T04:51:50.715Z,6.67
2023-04-27T04:56:52.504Z,6.86
2023-04-27T05:01:54.257Z,7.13
2023-04-27T05:06:55.852Z,7.58
2023-04-27T05:11:57.495Z,7.91
2023-04-27T05:16:59.250Z,8.04
2023-04-27T05:22:00.960Z,7.94
2023-04-27T05:27:02.671Z,8.13
2023-04-27T05:32:04.653Z,9.18
2023-04-27T05:37:06.405Z,9.65
2023-04-27T05:42:07.891Z,10.56
2023-04-27T05:47:09.564Z,10.95
2023-04-27T05:52:11.149Z,11.11
2023-04-27T05:57:12.903Z,11.02
2023-04-27T06:02:14.527Z,11.12
2023-04-27T06:07:16.472Z,11.19
2023-04-27T06:12:18.100Z,10.67
2023-04-27T06:17:21.977Z,10.85
2023-04-27T06:22:23.557Z,10.66
2023-04-27T06:27:25.125Z,10.95
2023-04-27T06:32:26.812Z,11.39
2023-04-27T06:37:28.470Z,11.84
2023-04-27T06:42:30.016Z,11.65
2023-04-27T06:47:31.652Z,11.31
2023-04-27T06:52:33.302Z,12.34
2023-04-27T06:57:35.055Z,12.16
2023-04-27T07:02:36.958Z,12.37
2023-04-27T07:07:38.662Z,12.08
2023-04-27T07:12:42.827Z,13.29
2023-04-27T07:17:44.559Z,13.69
2023-04-27T07:22:46.152Z,12.98
2023-04-27T07:27:47.659Z,13.47
2023-04-27T07:32:49.427Z,13.98
2023-04-27T07:37:51.015Z,14.57
2023-04-27T07:42:52.526Z,13.79
2023-04-27T07:47:54.105Z,15.66
2023-04-27T07:52:56.336Z,14.07
2023-04-27T07:57:58.115Z,15.05
2023-04-27T08:03:00.009Z,16.50
2023-04-27T08:13:03.345Z,15.91
2023-04-27T08:18:05.026Z,14.86
2023-04-27T08:23:06.694Z,15.31
2023-04-27T08:28:08.236Z,15.37
2023-04-27T08:33:10.088Z,14.90
2023-04-27T08:38:11.713Z,15.13
2023-04-27T08:43:13.744Z,16.04
2023-04-27T08:48:15.417Z,17.79
2023-04-27T08:53:20.314Z,15.93
2023-04-27T08:58:21.868Z,17.76
2023-04-27T09:03:26.961Z,17.52
2023-04-27T09:08:28.860Z,17.94
2023-04-27T09:13:38.918Z,17.15
2023-04-27T09:18:43.456Z,18.21
2023-04-27T09:23:45.200Z,18.30
2023-04-27T09:28:49.304Z,18.67
2023-04-27T09:33:55.401Z,20.73
2023-04-27T09:38:57.731Z,18.71
2023-04-27T09:44:00.202Z,20.30
2023-04-27T09:49:05.030Z,20.32
2023-04-27T09:54:10.331Z,17.91
2023-04-27T09:59:30.818Z,17.27
2023-04-27T10:05:09.866Z,19.22
2023-04-27T10:10:18.680Z,18.92
2023-04-27T10:15:26.432Z,18.57
2023-04-27T10:20:33.694Z,19.31
2023-04-27T10:25:40.702Z,18.78
2023-04-27T10:30:46.104Z,19.45
2023-04-27T10:35:59.168Z,18.17
2023-04-27T10:41:02.645Z,19.46
2023-04-27T10:46:22.144Z,20.87
2023-04-27T10:51:25.073Z,21.02
2023-04-27T10:56:26.682Z,20.49
2023-04-27T11:01:28.372Z,19.19
2023-04-27T11:06:30.781Z,20.03
2023-04-27T11:11:32.380Z,20.58
2023-04-27T11:16:34.081Z,20.98
2023-04-27T11:21:35.923Z,21.20
2023-04-27T11:26:37.548Z,21.92
2023-04-27T11:31:46.306Z,21.96
2023-04-27T11:37:17.364Z,21.12
2023-04-27T11:42:28.090Z,20.43
2023-04-27T11:47:31.084Z,21.39
2023-04-27T11:52:34.605Z,21.80
2023-04-27T11:57:36.529Z,20.42
2023-04-27T12:02:38.717Z,20.76
2023-04-27T12:07:40.546Z,20.84
2023-04-27T12:12:42.546Z,20.70
2023-04-27T12:17:44.090Z,20.48
2023-04-27T12:22:45.712Z,22.01
2023-04-27T12:27:47.326Z,21.52
2023-04-27T12:32:48.978Z,22.14
2023-04-27T12:37:50.540Z,22.71
2023-04-27T12:42:52.222Z,21.23
2023-04-27T12:48:02.849Z,21.19
2023-04-27T12:53:05.633Z,21.75
2023-04-27T12:58:07.201Z,19.90
2023-04-27T13:03:08.987Z,21.51
2023-04-27T13:08:10.910Z,22.10
2023-04-27T13:13:12.811Z,20.60
2023-04-27T13:18:14.700Z,22.58
2023-04-27T13:23:16.768Z,22.87
2023-04-27T13:28:18.682Z,23.85
2023-04-27T13:33:23.031Z,22.62
2023-04-27T13:38:25.345Z,23.96
2023-04-27T13:43:27.149Z,22.15
2023-04-27T13:48:29.575Z,22.35
2023-04-27T13:53:31.151Z,22.33
2023-04-27T13:58:32.793Z,20.28
2023-04-27T14:03:35.584Z,22.69
2023-04-27T14:08:37.415Z,21.01
2023-04-27T14:13:39.031Z,20.85
2023-04-27T14:18:40.683Z,21.86
2023-04-27T14:23:42.581Z,20.69
2023-04-27T14:28:44.140Z,21.03
2023-04-27T14:33:45.874Z,20.48
2023-04-27T14:38:47.427Z,21.07
2023-04-27T14:43:49.086Z,20.69
2023-04-27T14:48:50.715Z,21.92
2023-04-27T14:53:52.596Z,21.55
2023-04-27T14:58:54.290Z,22.10
2023-04-27T15:03:56.368Z,21.19
2023-04-27T15:08:58.542Z,22.66
2023-04-27T15:14:00.259Z,23.13
2023-04-27T15:19:01.878Z,23.41
2023-04-27T15:24:03.579Z,23.21
2023-04-27T15:29:05.298Z,22.87
2023-04-27T15:34:07.113Z,22.30
2023-04-27T15:39:10.283Z,22.26
2023-04-27T15:44:11.955Z,22.06
2023-04-27T15:49:13.888Z,21.70
2023-04-27T15:54:19.214Z,21.47
2023-04-27T15:59:20.760Z,20.51
2023-04-27T16:04:22.439Z,19.91
2023-04-27T16:09:24.099Z,20.05
2023-04-27T16:14:25.647Z,20.32
2023-04-27T16:19:27.237Z,19.51
2023-04-27T16:24:29.566Z,19.80
2023-04-27T16:29:31.078Z,19.29
2023-04-27T16:34:32.888Z,19.23
2023-04-27T16:39:34.420Z,18.76
2023-04-27T16:44:37.815Z,18.67
2023-04-27T16:49:39.488Z,18.61
2023-04-27T16:54:41.070Z,18.36
2023-04-27T16:59:42.587Z,18.42
2023-04-27T17:04:44.214Z,18.64
2023-04-27T17:09:45.733Z,18.53
2023-04-27T17:14:47.305Z,18.28
2023-04-27T17:19:48.836Z,18.14
2023-04-27T17:24:50.447Z,18.04
2023-04-27T17:29:53.695Z,17.94
2023-04-27T17:34:55.341Z,17.65
2023-04-27T17:39:57.182Z,17.53
2023-04-27T17:44:58.734Z,17.47
2023-04-27T17:50:00.227Z,17.32
2023-04-27T17:55:01.786Z,17.14
2023-04-27T18:00:03.718Z,17.17
2023-04-27T18:05:11.508Z,17.19
2023-04-27T18:10:13.264Z,17.13
2023-04-27T18:15:14.805Z,16.95
2023-04-27T18:20:17.745Z,16.77
2023-04-27T18:25:19.739Z,16.73
2023-04-27T18:30:21.617Z,16.63
2023-04-27T18:35:23.281Z,16.61
2023-04-27T18:40:24.880Z,16.56
2023-04-27T18:45:26.422Z,16.49
2023-04-27T18:50:28.138Z,16.46
2023-04-27T18:55:29.722Z,16.36
2023-04-27T19:00:31.312Z,16.19
2023-04-27T19:05:32.867Z,16.23
2023-04-27T19:10:34.575Z,16.15
2023-04-27T19:15:36.094Z,16.01
2023-04-27T19:20:38.300Z,15.89
2023-04-27T19:25:39.982Z,15.79
2023-04-27T19:30:41.682Z,15.84
2023-04-27T19:35:43.554Z,15.79
2023-04-27T19:40:47.061Z,15.75
2023-04-27T19:45:48.758Z,15.74
2023-04-27T19:50:50.614Z,15.70
2023-04-27T19:55:52.154Z,15.81
2023-04-27T20:00:53.845Z,15.73
2023-04-27T20:05:55.813Z,15.58
2023-04-27T20:10:57.720Z,15.52
2023-04-27T20:15:59.693Z,15.41
2023-04-27T20:21:01.376Z,15.44
2023-04-27T20:26:03.711Z,15.41
2023-04-27T20:31:05.374Z,15.31
2023-04-27T20:36:17.215Z,15.26
2023-04-27T20:41:19.925Z,15.22
2023-04-27T20:46:21.689Z,15.19
2023-04-27T20:51:23.285Z,15.08
2023-04-27T20:56:25.040Z,14.80
2023-04-27T21:01:26.656Z,14.57
2023-04-27T21:06:28.215Z,14.46
2023-04-27T21:11:29.899Z,14.34
2023-04-27T21:16:31.481Z,14.34
2023-04-27T21:21:33.008Z,14.33
2023-04-27T21:26:34.660Z,14.28
2023-04-27T21:31:36.279Z,14.32
2023-04-27T21:36:37.862Z,14.41
2023-04-27T21:41:39.434Z,14.48
2023-04-27T21:46:41.197Z,14.32
2023-04-27T21:51:42.722Z,14.02
2023-04-27T21:56:44.276Z,13.90
2023-04-27T22:01:46.088Z,13.94
2023-04-27T22:06:48.318Z,13.84
2023-04-27T22:11:50.118Z,13.44
2023-04-27T22:16:51.707Z,13.50
2023-04-27T22:21:53.863Z,13.73
2023-04-27T22:26:55.589Z,13.86
2023-04-27T22:31:57.725Z,13.86
2023-04-27T22:36:59.458Z,13.91
2023-04-27T22:42:01.190Z,14.16
2023-04-27T22:47:03.431Z,14.27
2023-04-27T22:52:05.466Z,14.40
2023-04-27T22:57:07.600Z,14.38
2023-04-27T23:02:09.379Z,14.39
2023-04-27T23:07:11.144Z,14.30
2023-04-27T23:12:12.912Z,14.24
2023-04-27T23:17:14.546Z,14.24
2023-04-27T23:22:16.236Z,14.25
2023-04-27T23:27:18.926Z,14.26
2023-04-27T23:32:21.034Z,14.03
2023-04-27T23:37:23.184Z,13.95
2023-04-27T23:42:25.415Z,13.98
2023-04-27T23:47:27.011Z,13.81
2023-04-27T23:52:28.608Z,13.46
2023-04-27T23:57:30.121Z,13.33
